Map

Track Data

SID SEASON NUMBER BASIN SUBBASIN NAME ISO_TIME NATURE LAT LON WMO_WIND WMO_PRES WMO_AGENCY TRACK_TYPE DIST2LAND LANDFALL IFLAG USA_AGENCY USA_ATCF_ID USA_LAT USA_LON USA_RECORD USA_STATUS USA_WIND USA_PRES USA_SSHS USA_R34_NE USA_R34_SE USA_R34_SW USA_R34_NW USA_R50_NE USA_R50_SE USA_R50_SW USA_R50_NW USA_R64_NE USA_R64_SE USA_R64_SW USA_R64_NW USA_POCI USA_ROCI USA_RMW USA_EYE TOKYO_LAT TOKYO_LON TOKYO_GRADE TOKYO_WIND TOKYO_PRES TOKYO_R50_DIR TOKYO_R50_LONG TOKYO_R50_SHORT TOKYO_R30_DIR TOKYO_R30_LONG TOKYO_R30_SHORT TOKYO_LAND CMA_LAT CMA_LON CMA_CAT CMA_WIND CMA_PRES HKO_LAT HKO_LON HKO_CAT HKO_WIND HKO_PRES NEWDELHI_LAT NEWDELHI_LON NEWDELHI_GRADE NEWDELHI_WIND NEWDELHI_PRES NEWDELHI_CI NEWDELHI_DP NEWDELHI_POCI REUNION_LAT REUNION_LON REUNION_TYPE REUNION_WIND REUNION_PRES REUNION_TNUM REUNION_CI REUNION_RMW REUNION_R34_NE REUNION_R34_SE REUNION_R34_SW REUNION_R34_NW REUNION_R50_NE REUNION_R50_SE REUNION_R50_SW REUNION_R50_NW REUNION_R64_NE REUNION_R64_SE REUNION_R64_SW REUNION_R64_NW BOM_LAT BOM_LON BOM_TYPE BOM_WIND BOM_PRES BOM_TNUM BOM_CI BOM_RMW BOM_R34_NE BOM_R34_SE BOM_R34_SW BOM_R34_NW BOM_R50_NE BOM_R50_SE BOM_R50_SW BOM_R50_NW BOM_R64_NE BOM_R64_SE BOM_R64_SW BOM_R64_NW BOM_ROCI BOM_POCI BOM_EYE BOM_POS_METHOD BOM_PRES_METHOD NADI_LAT NADI_LON NADI_CAT NADI_WIND NADI_PRES WELLINGTON_LAT WELLINGTON_LON WELLINGTON_WIND WELLINGTON_PRES DS824_LAT DS824_LON DS824_STAGE DS824_WIND DS824_PRES TD9636_LAT TD9636_LON TD9636_STAGE TD9636_WIND TD9636_PRES TD9635_LAT TD9635_LON TD9635_WIND TD9635_PRES TD9635_ROCI NEUMANN_LAT NEUMANN_LON NEUMANN_CLASS NEUMANN_WIND NEUMANN_PRES MLC_LAT MLC_LON MLC_CLASS MLC_WIND MLC_PRES USA_GUST BOM_GUST BOM_GUST_PER REUNION_GUST REUNION_GUST_PER USA_SEAHGT USA_SEARAD_NE USA_SEARAD_SE USA_SEARAD_SW USA_SEARAD_NW STORM_SPEED STORM_DIR
2020294N12280 2020 90 NA CS ZETA 2020-10-20 00:00:00 NR 12.1000 -80.0000 PROVISIONAL 293 293 O_____________ nhc_working_bt AL282020 12.1000 -80.0000 DB 15 -3 4 345
2020294N12280 2020 90 NA CS ZETA 2020-10-20 03:00:00 NR 12.3125 -80.0500 PROVISIONAL 315 315 P_____________ AL282020 12.3125 -80.0500 DB 15 -3 4 347
2020294N12280 2020 90 NA CS ZETA 2020-10-20 06:00:00 NR 12.5000 -80.1000 PROVISIONAL 338 338 O_____________ nhc_working_bt AL282020 12.5000 -80.1000 DB 15 -3 4 344
2020294N12280 2020 90 NA CS ZETA 2020-10-20 09:00:00 NR 12.6500 -80.1500 PROVISIONAL 358 351 P_____________ AL282020 12.6500 -80.1500 DB 15 -3 3 343
2020294N12280 2020 90 NA CS ZETA 2020-10-20 12:00:00 NR 12.8000 -80.2000 PROVISIONAL 358 355 O_____________ nhc_working_bt AL282020 12.8000 -80.2000 DB 15 -3 3 343
2020294N12280 2020 90 NA CS ZETA 2020-10-20 15:00:00 NR 12.9775 -80.2500 PROVISIONAL 345 336 P_____________ AL282020 12.9775 -80.2500 DB 15 -3 4 347
2020294N12280 2020 90 NA CS ZETA 2020-10-20 18:00:00 NR 13.2000 -80.3000 PROVISIONAL 336 325 O_____________ nhc_working_bt AL282020 13.2000 -80.3000 DB 15 -3 5 350
2020294N12280 2020 90 NA CS ZETA 2020-10-20 21:00:00 NR 13.4925 -80.3500 PROVISIONAL 325 307 P_____________ AL282020 13.4925 -80.3500 DB 15 -3 6 351
2020294N12280 2020 90 NA CS ZETA 2020-10-21 00:00:00 NR 13.8000 -80.4000 PROVISIONAL 307 303 O_____________ nhc_working_bt AL282020 13.8000 -80.4000 DB 15 -3 6 350
2020294N12280 2020 90 NA CS ZETA 2020-10-21 03:00:00 NR 14.0575 -80.4500 PROVISIONAL 292 290 P_____________ AL282020 14.0575 -80.4500 DB 15 -3 5 349
2020294N12280 2020 90 NA CS ZETA 2020-10-21 06:00:00 NR 14.3000 -80.5000 PROVISIONAL 290 285 O_____________ nhc_working_bt AL282020 14.3000 -80.5000 DB 15 -3 5 349
2020294N12280 2020 90 NA CS ZETA 2020-10-21 09:00:00 NR 14.5500 -80.5500 PROVISIONAL 272 269 P_____________ AL282020 14.5500 -80.5500 DB 15 -3 5 349
2020294N12280 2020 90 NA CS ZETA 2020-10-21 12:00:00 NR 14.8000 -80.6000 PROVISIONAL 269 268 O_____________ nhc_working_bt AL282020 14.8000 -80.6000 DB 15 -3 5 349
2020294N12280 2020 90 NA CS ZETA 2020-10-21 15:00:00 NR 15.0500 -80.6500 PROVISIONAL 258 257 P_____________ AL282020 15.0500 -80.6500 DB 15 -3 5 349
2020294N12280 2020 90 NA CS ZETA 2020-10-21 18:00:00 NR 15.3000 -80.7000 PROVISIONAL 259 259 O_____________ nhc_working_bt AL282020 15.3000 -80.7000 DB 15 -3 5 349
2020294N12280 2020 90 NA CS ZETA 2020-10-21 21:00:00 NR 15.5500 -80.7500 PROVISIONAL 255 253 P_____________ AL282020 15.5500 -80.7500 DB 15 -3 5 349
2020294N12280 2020 90 NA CS ZETA 2020-10-22 00:00:00 NR 15.8000 -80.8000 PROVISIONAL 262 262 O_____________ nhc_working_bt AL282020 15.8000 -80.8000 DB 15 -3 5 349
2020294N12280 2020 90 NA CS ZETA 2020-10-22 03:00:00 NR 16.0425 -80.8500 PROVISIONAL 261 261 P_____________ AL282020 16.0425 -80.8500 DB 17 -3 5 349
2020294N12280 2020 90 NA CS ZETA 2020-10-22 06:00:00 DS 16.3000 -80.9000 PROVISIONAL 276 276 O_____________ nhc_working_bt AL282020 16.3000 -80.9000 LO 20 -3 1011 150 90 6 350
2020294N12280 2020 90 NA CS ZETA 2020-10-22 09:00:00 DS 16.5925 -80.9500 PROVISIONAL 287 287 P_____________ AL282020 16.5925 -80.9500 LO 20 -3 1011 150 85 6 351
2020294N12280 2020 90 NA CS ZETA 2020-10-22 12:00:00 DS 16.9000 -81.0000 PROVISIONAL 309 297 O_____________ nhc_working_bt AL282020 16.9000 -81.0000 LO 20 -3 1011 150 80 6 351
2020294N12280 2020 90 NA CS ZETA 2020-10-22 15:00:00 DS 17.2150 -81.0500 PROVISIONAL 297 296 P_____________ AL282020 17.2150 -81.0500 LO 20 -3 1011 150 75 6 351
2020294N12280 2020 90 NA CS ZETA 2020-10-22 18:00:00 DS 17.5000 -81.1000 PROVISIONAL 296 291 O_____________ nhc_working_bt AL282020 17.5000 -81.1000 LO 20 -3 1011 150 70 5 349
2020294N12280 2020 90 NA CS ZETA 2020-10-22 21:00:00 DS 17.7225 -81.1500 PROVISIONAL 301 297 P_____________ AL282020 17.7225 -81.1500 LO 20 -3 1011 150 65 4 347
2020294N12280 2020 90 NA CS ZETA 2020-10-23 00:00:00 DS 17.9000 -81.2000 PROVISIONAL 297 296 O_____________ nhc_working_bt AL282020 17.9000 -81.2000 LO 20 1009 -3 1011 150 60 3 344
2020294N12280 2020 90 NA CS ZETA 2020-10-23 03:00:00 DS 18.0500 -81.2425 PROVISIONAL 296 296 P_____________ AL282020 18.0500 -81.2425 LO 22 1008 -3 1011 150 55 3 343
2020294N12280 2020 90 NA CS ZETA 2020-10-23 06:00:00 DS 18.2000 -81.3000 PROVISIONAL 306 306 O_____________ nhc_working_bt AL282020 18.2000 -81.3000 LO 25 1008 -3 1011 150 50 4 337
2020294N12280 2020 90 NA CS ZETA 2020-10-23 09:00:00 DS 18.3925 -81.3925 PROVISIONAL 317 317 P_____________ AL282020 18.3925 -81.3925 LO 25 1008 -3 1010 125 50 4 335
2020294N12280 2020 90 NA CS ZETA 2020-10-23 12:00:00 DS 18.6000 -81.5000 PROVISIONAL 330 316 O_____________ nhc_working_bt AL282020 18.6000 -81.5000 LO 25 1008 -3 1010 100 50 5 338
2020294N12280 2020 90 NA CS ZETA 2020-10-23 15:00:00 DS 18.8375 -81.5850 PROVISIONAL 316 291 P_____________ AL282020 18.8375 -81.5850 LO 25 1007 -3 1010 100 55 4 335
2020294N12280 2020 90 NA CS ZETA 2020-10-23 18:00:00 DS 19.0000 -81.7000 PROVISIONAL 291 284 O_____________ nhc_working_bt AL282020 19.0000 -81.7000 LO 25 1007 -3 1010 100 60 35 3 299
2020294N12280 2020 90 NA CS ZETA 2020-10-23 21:00:00 DS 19.0026 -81.9001 PROVISIONAL 284 281 P_____________ AL282020 19.0026 -81.9001 LO 25 1007 -3 1009 110 60 4 255
2020294N12280 2020 90 NA CS ZETA 2020-10-24 00:00:00 DS 18.9000 -82.1000 PROVISIONAL 289 289 O_____________ nhc_working_bt AL282020 18.9000 -82.1000 LO 25 1007 -3 1009 120 60 35 4 230
2020294N12280 2020 90 NA CS ZETA 2020-10-24 03:00:00 DS 18.7574 -82.2075 PROVISIONAL 297 297 P_____________ AL282020 18.7574 -82.2075 LO 25 1007 -3 1009 150 65 4 212
2020294N12280 2020 90 NA CS ZETA 2020-10-24 06:00:00 DS 18.6000 -82.3000 PROVISIONAL 317 317 O_____________ nhc_working_bt AL282020 18.6000 -82.3000 LO 25 1007 -3 1010 180 70 35 3 218
2020294N12280 2020 90 NA CS ZETA 2020-10-24 09:00:00 DS 18.4850 -82.4350 PROVISIONAL 327 325 P_____________ AL282020 18.4850 -82.4350 LO 25 1007 -3 1010 180 70 3 235
2020294N12280 2020 90 NA CS ZETA 2020-10-24 12:00:00 TS 18.4000 -82.6000 PROVISIONAL 336 331 O_____________ nhc_working_bt AL282020 18.4000 -82.6000 TD 25 1007 -1 1010 180 70 35 4 249
2020294N12280 2020 90 NA CS ZETA 2020-10-24 15:00:00 TS 18.3500 -82.8075 PROVISIONAL 331 312 P_____________ AL282020 18.3500 -82.8075 TD 25 1006 -1 1009 180 95 4 266
2020294N12280 2020 90 NA CS ZETA 2020-10-24 18:00:00 TS 18.3667 -83.0667 PROVISIONAL 317 317 O_____________ nhc_working_bt AL282020 18.3000 -83.0000 TD 25 1006 -1 1009 180 120 35 4 306
2020294N12280 2020 90 NA CS ZETA 2020-10-24 21:00:00 TS 18.5575 -83.1061 PROVISIONAL 314 314 P_____________ AL282020 18.2225 -83.1150 TD 27 1006 -1 1009 180 100 2 342
2020294N12280 2020 90 NA CS ZETA 2020-10-25 00:00:00 TS 18.5800 -83.1400 PROVISIONAL 314 288 O_____________ nhc_working_bt AL282020 18.1000 -83.2000 TD 30 1006 -1 1009 180 80 40 4 203
2020294N12280 2020 90 NA CS ZETA 2020-10-25 03:00:00 TS 18.1742 -83.2780 PROVISIONAL 288 229 P_____________ AL282020 17.8775 -83.2926 TD 35 1005 0 35 1009 180 75 9 200
2020294N12280 2020 90 NA CS ZETA 2020-10-25 06:00:00 TS 17.7000 -83.4667 PROVISIONAL 229 214 O_____________ nhc_working_bt AL282020 17.7000 -83.4000 TS 40 1005 0 70 1009 180 70 45 6 215
2020294N12280 2020 90 NA CS ZETA 2020-10-25 09:00:00 TS 17.6650 -83.6439 PROVISIONAL 225 222 P_____________ AL282020 17.7050 -83.5574 TS 42 1004 0 70 1009 180 70 3 289
2020294N12280 2020 90 NA CS ZETA 2020-10-25 12:00:00 TS 17.8000 -83.7667 PROVISIONAL 230 230 O_____________ nhc_working_bt AL282020 17.8000 -83.7000 TS 45 1004 0 70 1009 180 70 45 3 332
2020294N12280 2020 90 NA CS ZETA 2020-10-25 15:00:00 TS 17.9025 -83.7750 PROVISIONAL 240 240 P_____________ AL282020 17.8925 -83.7650 TS 47 1003 0 85 1008 180 70 2 13
2020294N12280 2020 90 NA CS ZETA 2020-10-25 18:00:00 TS 18.0000 -83.7333 PROVISIONAL 254 254 O_____________ nhc_working_bt AL282020 18.0000 -83.8000 TS 50 1002 0 100 70 1008 180 70 55 1 34
2020294N12280 2020 90 NA CS ZETA 2020-10-25 21:00:00 TS 18.0208 -83.6942 PROVISIONAL 254 254 P_____________ AL282020 18.0925 -83.8425 TS 52 999 0 100 60 1008 190 60 1 33
2020294N12280 2020 90 NA CS ZETA 2020-10-26 00:00:00 TS 18.0667 -83.7000 PROVISIONAL 265 265 O_____________ nhc_working_bt AL282020 18.2000 -83.9000 TS 55 996 0 60 100 50 1009 200 50 60 2 342
2020294N12280 2020 90 NA CS ZETA 2020-10-26 03:00:00 TS 18.2199 -83.7685 PROVISIONAL 273 273 P_____________ AL282020 18.3349 -83.9551 TS 60 994 0 60 100 50 1008 190 40 4 325
2020294N12280 2020 90 NA CS ZETA 2020-10-26 06:00:00 TS 18.4333 -83.9667 PROVISIONAL 289 289 O_____________ nhc_working_bt AL282020 18.5000 -84.1000 HU 65 993 1 60 100 50 20 1008 180 30 65 12 60 30 30 7 309
2020294N12280 2020 90 NA CS ZETA 2020-10-26 09:00:00 TS 18.6618 -84.3407 PROVISIONAL 316 281 P_____________ AL282020 18.6850 -84.3976 HU 65 991 1 60 100 50 20 1008 180 30 12 60 30 30 9 301
2020294N12280 2020 90 NA CS ZETA 2020-10-26 12:00:00 TS 18.9000 -84.8000 PROVISIONAL 281 235 O_____________ nhc_working_bt AL282020 18.9000 -84.8000 HU 65 990 1 60 100 50 20 1009 180 30 75 12 60 30 30 9 299
2020294N12280 2020 90 NA CS ZETA 2020-10-26 15:00:00 TS 19.1090 -85.2069 PROVISIONAL 235 190 P_____________ AL282020 19.1425 -85.2350 HU 67 985 1 80 100 50 20 1008 165 25 12 75 45 45 9 299
2020294N12280 2020 90 NA CS ZETA 2020-10-26 18:00:00 TS 19.3333 -85.6333 PROVISIONAL 190 136 O_____________ nhc_working_bt AL282020 19.4000 -85.7000 HU 70 981 1 100 100 30 70 50 50 20 40 20 1008 150 20 85 12 90 60 30 60 10 301
2020294N12280 2020 90 NA CS ZETA 2020-10-26 21:00:00 TS 19.5964 -86.0820 PROVISIONAL 136 94 P_____________ AL282020 19.6346 -86.1205 HU 70 980 1 110 105 45 70 60 60 20 40 30 1008 150 20 12 90 60 30 60 11 302
2020294N12280 2020 90 NA CS ZETA 2020-10-27 00:00:00 TS 19.9000 -86.6000 PROVISIONAL 94 30 O_____________ nhc_working_bt AL282020 19.9000 -86.6000 HU 70 980 1 120 110 60 70 70 70 20 40 40 40 1008 150 20 85 12 90 60 30 60 13 301
2020294N12280 2020 90 NA CS ZETA 2020-10-27 03:00:00 TS 20.2402 -87.2399 PROVISIONAL 30 0 P_____________ AL282020 20.2352 -87.2349 HU 67 981 1 120 115 60 70 70 70 20 40 35 35 1008 150 20 12 105 75 30 45 14 300
2020294N12280 2020 90 NA NA ZETA 2020-10-27 06:00:00 TS 20.6000 -87.9000 PROVISIONAL 0 0 O_____________ nhc_working_bt AL282020 20.6000 -87.9000 HU 65 982 1 120 120 60 70 70 70 20 40 30 30 1008 150 20 80 12 120 90 30 30 14 301
2020294N12280 2020 90 NA NA ZETA 2020-10-27 09:00:00 TS 20.9397 -88.4729 PROVISIONAL 0 0 P_____________ AL282020 20.9347 -88.4730 HU 62 983 0 120 120 60 70 70 70 20 40 1008 150 20 12 135 105 12 304
2020294N12280 2020 90 NA NA ZETA 2020-10-27 12:00:00 TS 21.3000 -89.0000 PROVISIONAL 0 0 O_____________ nhc_working_bt AL282020 21.3000 -89.0000 TS 60 985 0 120 120 60 70 70 70 20 40 1008 150 20 75 12 150 120 12 307
2020294N12280 2020 90 NA GM ZETA 2020-10-27 15:00:00 TS 21.6891 -89.5228 PROVISIONAL 49 49 P_____________ AL282020 21.7274 -89.5226 TS 57 986 0 120 120 60 70 70 70 20 40 1008 150 20 12 165 13 312
2020294N12280 2020 90 NA GM ZETA 2020-10-27 18:00:00 TS 22.1333 -90.0000 PROVISIONAL 101 101 O_____________ nhc_working_bt AL282020 22.2000 -90.0000 TS 55 988 0 120 120 60 70 70 70 20 40 1008 150 20 65 12 180 30 13 319
2020294N12280 2020 90 NA GM ZETA 2020-10-27 21:00:00 TS 22.6390 -90.4228 PROVISIONAL 164 164 P_____________ AL282020 22.6773 -90.4229 TS 57 989 0 120 120 60 70 65 65 25 40 1008 155 25 12 180 45 13 325
2020294N12280 2020 90 NA GM ZETA 2020-10-28 00:00:00 TS 23.2000 -90.8000 PROVISIONAL 240 240 O_____________ nhc_working_bt AL282020 23.2000 -90.8000 TS 60 990 0 120 120 60 70 60 60 30 40 1008 160 30 65 12 180 60 30 60 13 328
2020294N12280 2020 90 NA GM ZETA 2020-10-28 03:00:00 TS 23.7601 -91.1900 PROVISIONAL 315 315 P_____________ AL282020 23.7551 -91.1949 TS 67 987 1 120 125 50 65 60 60 25 30 15 15 1008 180 30 14 332
2020294N12280 2020 90 NA GM ZETA 2020-10-28 06:00:00 TS 24.4000 -91.5000 PROVISIONAL 388 388 O_____________ nhc_working_bt AL282020 24.4000 -91.5000 HU 75 984 1 120 130 40 60 60 60 20 20 30 30 1009 200 30 15 340
2020294N12280 2020 90 NA GM ZETA 2020-10-28 09:00:00 TS 25.1398 -91.7397 PROVISIONAL 453 368 P_____________ AL282020 25.1398 -91.6967 HU 77 981 1 120 130 40 60 60 60 20 20 30 30 1008 190 27 16 351
2020294N12280 2020 90 NA GM ZETA 2020-10-28 12:00:00 TS 26.0000 -91.7667 PROVISIONAL 357 252 O_____________ nhc_working_bt AL282020 26.0000 -91.7000 HU 80 978 1 120 130 40 60 60 60 20 20 30 30 1008 180 25 100 12 180 120 90 120 18 7
2020294N12280 2020 90 NA GM ZETA 2020-10-28 15:00:00 TS 26.9550 -91.5051 PROVISIONAL 241 135 P_____________ AL282020 26.9548 -91.5045 HU 85 975 2 125 130 40 60 65 65 20 20 30 30 1008 180 22 12 180 135 90 120 21 18
2020294N12280 2020 90 NA GM ZETA 2020-10-28 18:00:00 TS 28.0000 -91.0333 PROVISIONAL 123 11 O_____________ nhc_working_bt AL282020 28.0000 -91.1000 HU 90 973 2 130 130 40 60 70 70 20 20 30 30 1008 180 20 110 12 180 150 90 120 23 21
2020294N12280 2020 90 NA GM ZETA 2020-10-28 21:00:00 TS 29.0535 -90.5873 PROVISIONAL 0 0 P_____________ AL282020 29.0537 -90.6311 HU 87 973 2 110 130 40 45 70 70 20 20 25 25 1008 195 20 12 180 150 135 120 24 24
2020294N12280 2020 90 NA GM ZETA 2020-10-29 00:00:00 TS 30.2000 -89.9000 PROVISIONAL 11 0 O_____________ nhc_working_bt AL282020 30.2000 -89.9000 HU 85 973 2 90 130 40 30 70 70 20 20 20 20 1008 210 20 105 12 180 150 180 120 28 31
2020294N12280 2020 90 NA NA ZETA 2020-10-29 03:00:00 TS 31.4749 -88.9036 PROVISIONAL 0 0 P_____________ AL282020 31.4748 -88.8984 HU 72 979 1 80 140 40 60 10 10 1006 195 20 12 135 195 33 38
2020294N12280 2020 90 NA NA ZETA 2020-10-29 06:00:00 TS 32.8000 -87.5000 PROVISIONAL 0 0 O_____________ nhc_working_bt AL282020 32.8000 -87.5000 TS 60 986 0 70 150 40 50 1005 180 20 75 12 120 210 37 46
2020294N12280 2020 90 NA NA ZETA 2020-10-29 09:00:00 TS 34.0534 -85.7673 PROVISIONAL 0 0 P_____________ AL282020 34.0534 -85.7673 TS 52 988 0 70 165 40 25 1005 180 20 12 225 41 52
2020294N12280 2020 90 NA NA ZETA 2020-10-29 12:00:00 TS 35.3000 -83.6000 PROVISIONAL 0 0 O_____________ nhc_working_bt AL282020 35.3000 -83.6000 TS 45 990 0 70 180 40 1005 180 20 55 12 240 46 57
2020294N12280 2020 90 NA NA ZETA 2020-10-29 15:00:00 TS 36.5624 -81.0335 PROVISIONAL 0 0 P_____________ AL282020 36.5624 -81.0335 TS 45 991 0 225 1007 315 55 50 60
2020294N12280 2020 90 NA NA ZETA 2020-10-29 18:00:00 ET 37.8000 -78.2000 PROVISIONAL 0 O_____________ nhc_working_bt AL282020 37.8000 -78.2000 EX 45 992 -4 270 1010 450 90 55 51 61

About IBTrACS Database

This database is a web-friendly format of International Best Track Archive for Climate Stewardship (IBTrACS), a global best track data archive curated by NOAA dating back to 1842.

Updated: 2021-12-03